Time;durP1;ratioP1;P1;durP2;ratioP2;P2;SDS_P1;SDS_P2;PMS_P1;PMS_P2;Temp;Humidity;BMP_temperature;BMP_pressure;BME280_temperature;BME280_humidity;BME280_pressure;Samples;Min_cycle;Max_cycle;Signal;HPM_P1;HPM_P2
2023/03/22 00:01:18;;;;;;;7.05;3.35;;;;;;;;;;5066551;28;20048;-59
2023/03/22 00:03:45;;;;;;;13.30;2.25;;;;;;;;;;5045428;28;20463;-59
2023/03/22 00:06:11;;;;;;;7.65;1.88;;;;;;;;;;5059015;28;20045;-59
2023/03/22 00:08:38;;;;;;;9.70;2.17;;;;;;;;;;5060484;28;20057;-59
2023/03/22 00:11:05;;;;;;;5.72;2.53;;;;;;;;;;5064523;28;20056;-60
2023/03/22 00:13:32;;;;;;;9.05;6.25;;;;;;;;;;5057635;28;20054;-60
2023/03/22 00:16:01;;;;;;;3.53;1.90;;;;;;;;;;5063024;28;20107;-59
2023/03/22 00:18:28;;;;;;;9.15;2.00;;;;;;;;;;5059604;28;20048;-59
2023/03/22 00:20:56;;;;;;;10.75;2.38;;;;;;;;;;5086016;28;20057;-60
2023/03/22 00:23:23;;;;;;;13.35;2.88;;;;;;;;;;5062734;28;20127;-59
2023/03/22 00:25:49;;;;;;;10.55;2.40;;;;;;;;;;5065105;28;20041;-60
2023/03/22 00:28:16;;;;;;;5.75;1.70;;;;;;;;;;5055935;28;20729;-59
2023/03/22 00:30:49;;;;;;;11.30;2.55;;;;;;;;;;5053238;28;20570;-59
2023/03/22 00:33:15;;;;;;;11.80;2.42;;;;;;;;;;5063143;28;20051;-59
2023/03/22 00:35:52;;;;;;;11.85;3.35;;;;;;;;;;5064960;28;20045;-59
2023/03/22 00:38:18;;;;;;;9.05;2.53;;;;;;;;;;5065833;28;20059;-59
2023/03/22 00:40:48;;;;;;;8.18;2.20;;;;;;;;;;5063303;28;20049;-60
2023/03/22 00:43:15;;;;;;;10.20;2.45;;;;;;;;;;5054736;28;20140;-59
2023/03/22 00:45:42;;;;;;;9.63;2.90;;;;;;;;;;5064565;28;20479;-59
2023/03/22 00:48:09;;;;;;;9.55;2.47;;;;;;;;;;5049033;28;20073;-59
2023/03/22 00:50:38;;;;;;;14.90;3.60;;;;;;;;;;5060373;28;20482;-60
2023/03/22 00:53:05;;;;;;;10.18;2.58;;;;;;;;;;5055370;28;20072;-59
2023/03/22 00:55:32;;;;;;;4.05;2.03;;;;;;;;;;5052985;28;20055;-59
2023/03/22 00:57:59;;;;;;;7.85;2.97;;;;;;;;;;5072957;28;20057;-60
2023/03/22 01:00:26;;;;;;;7.30;2.00;;;;;;;;;;5051884;28;20638;-60
2023/03/22 01:02:52;;;;;;;7.05;2.55;;;;;;;;;;5054190;28;20144;-59
2023/03/22 01:05:20;;;;;;;10.88;2.70;;;;;;;;;;5065491;28;20053;-60
2023/03/22 01:07:49;;;;;;;9.43;2.03;;;;;;;;;;5062219;28;20053;-60
2023/03/22 01:10:16;;;;;;;8.95;2.50;;;;;;;;;;5052946;28;20050;-59
2023/03/22 01:12:43;;;;;;;11.68;2.58;;;;;;;;;;5056003;28;20053;-59
2023/03/22 01:15:09;;;;;;;7.78;1.95;;;;;;;;;;5064142;28;20072;-59
2023/03/22 01:17:36;;;;;;;6.57;2.30;;;;;;;;;;5057911;28;20141;-59
2023/03/22 01:20:03;;;;;;;8.77;2.63;;;;;;;;;;5077992;28;20048;-59
2023/03/22 01:22:30;;;;;;;9.10;2.17;;;;;;;;;;5079497;28;20053;-60
2023/03/22 01:24:56;;;;;;;7.95;2.22;;;;;;;;;;5064920;28;20049;-60
2023/03/22 01:27:22;;;;;;;5.80;2.58;;;;;;;;;;5054773;28;20093;-59
2023/03/22 01:29:49;;;;;;;4.55;1.98;;;;;;;;;;5048240;28;20145;-59
2023/03/22 01:32:15;;;;;;;6.03;2.10;;;;;;;;;;5047277;28;20140;-59
2023/03/22 01:34:42;;;;;;;6.18;1.70;;;;;;;;;;5064603;28;20061;-60
2023/03/22 01:37:08;;;;;;;10.73;2.58;;;;;;;;;;5052853;28;20140;-60
2023/03/22 01:39:34;;;;;;;11.35;2.55;;;;;;;;;;5054429;28;20053;-60
2023/03/22 01:42:02;;;;;;;9.77;3.30;;;;;;;;;;5044710;28;20049;-59
2023/03/22 01:44:28;;;;;;;7.68;1.83;;;;;;;;;;5048177;28;20058;-60
2023/03/22 01:46:55;;;;;;;4.90;1.55;;;;;;;;;;5072717;28;20049;-59
2023/03/22 01:49:26;;;;;;;6.68;2.15;;;;;;;;;;5075256;28;20387;-59
2023/03/22 01:51:54;;;;;;;8.35;2.08;;;;;;;;;;5058996;28;20052;-59
2023/03/22 01:54:35;;;;;;;9.55;2.72;;;;;;;;;;5044571;28;20077;-59
2023/03/22 01:57:02;;;;;;;6.57;1.80;;;;;;;;;;5071844;28;20048;-60
2023/03/22 01:59:29;;;;;;;8.32;2.15;;;;;;;;;;5064084;28;20061;-59
2023/03/22 02:01:58;;;;;;;6.60;1.85;;;;;;;;;;5058225;28;20056;-59
2023/03/22 02:04:32;;;;;;;5.32;2.00;;;;;;;;;;5067085;28;20111;-59
2023/03/22 02:07:08;;;;;;;6.00;1.90;;;;;;;;;;5064344;28;20060;-59
2023/03/22 02:09:38;;;;;;;7.38;2.40;;;;;;;;;;5046301;28;20053;-60
2023/03/22 02:12:13;;;;;;;4.63;1.80;;;;;;;;;;5045269;28;20049;-59
2023/03/22 02:15:02;;;;;;;5.50;2.22;;;;;;;;;;5052635;28;20053;-59
2023/03/22 02:17:35;;;;;;;8.57;2.28;;;;;;;;;;5036171;28;20085;-60
2023/03/22 02:20:09;;;;;;;7.22;1.80;;;;;;;;;;5047981;28;20172;-60
2023/03/22 02:22:51;;;;;;;8.50;2.40;;;;;;;;;;5063789;28;20060;-61
2023/03/22 02:25:41;;;;;;;6.88;2.50;;;;;;;;;;5075236;28;20495;-59
2023/03/22 02:28:07;;;;;;;16.13;3.05;;;;;;;;;;5065282;28;20566;-60
2023/03/22 02:30:36;;;;;;;4.03;1.83;;;;;;;;;;5067051;28;20840;-59
2023/03/22 02:33:16;;;;;;;7.55;2.20;;;;;;;;;;5068449;28;20095;-60
2023/03/22 02:35:53;;;;;;;6.13;2.47;;;;;;;;;;5058819;28;20065;-59
2023/03/22 02:38:41;;;;;;;7.80;2.25;;;;;;;;;;5059623;28;20499;-60
2023/03/22 02:41:07;;;;;;;11.82;3.65;;;;;;;;;;5075700;28;20048;-60
2023/03/22 02:43:37;;;;;;;6.75;3.00;;;;;;;;;;5079944;28;20047;-59
2023/03/22 02:46:07;;;;;;;7.15;2.85;;;;;;;;;;5070053;28;20096;-59
2023/03/22 02:48:39;;;;;;;10.13;4.03;;;;;;;;;;5067105;28;20045;-60
2023/03/22 02:51:17;;;;;;;10.70;3.88;;;;;;;;;;5065423;28;20373;-60
2023/03/22 02:53:47;;;;;;;10.95;4.03;;;;;;;;;;5066739;28;20522;-59
2023/03/22 02:56:17;;;;;;;12.20;4.30;;;;;;;;;;5088077;28;20052;-59
2023/03/22 02:58:46;;;;;;;6.75;4.03;;;;;;;;;;5054973;28;20144;-60
2023/03/22 03:01:18;;;;;;;11.43;4.72;;;;;;;;;;5066866;28;20534;-59
2023/03/22 03:03:47;;;;;;;13.20;5.20;;;;;;;;;;5051031;28;20042;-60
2023/03/22 03:06:15;;;;;;;12.32;5.13;;;;;;;;;;5062217;28;20139;-60
2023/03/22 03:08:42;;;;;;;12.07;4.78;;;;;;;;;;5064786;28;20069;-59
2023/03/22 03:11:09;;;;;;;12.50;5.95;;;;;;;;;;5061648;28;20049;-59
2023/03/22 03:13:35;;;;;;;12.88;5.68;;;;;;;;;;5065655;28;20172;-60
2023/03/22 03:16:02;;;;;;;12.45;6.28;;;;;;;;;;5067463;28;20052;-60
2023/03/22 03:18:31;;;;;;;8.20;5.60;;;;;;;;;;5065821;28;20063;-59
2023/03/22 03:21:01;;;;;;;15.15;6.78;;;;;;;;;;5062456;28;20053;-60
2023/03/22 03:23:45;;;;;;;10.90;6.47;;;;;;;;;;5065901;28;20049;-60
2023/03/22 03:26:30;;;;;;;14.20;7.57;;;;;;;;;;5084520;28;20499;-60
2023/03/22 03:29:13;;;;;;;10.67;6.13;;;;;;;;;;5051210;28;20042;-59
2023/03/22 03:31:42;;;;;;;12.48;6.90;;;;;;;;;;5058258;28;20190;-60
2023/03/22 03:34:08;;;;;;;16.42;7.47;;;;;;;;;;5066186;28;20110;-59
2023/03/22 03:36:38;;;;;;;11.18;7.05;;;;;;;;;;5079335;28;20045;-60
2023/03/22 03:39:07;;;;;;;16.48;7.32;;;;;;;;;;5072400;28;20063;-59
2023/03/22 03:41:34;;;;;;;12.10;7.38;;;;;;;;;;5066079;28;20049;-59
2023/03/22 03:44:02;;;;;;;11.68;7.45;;;;;;;;;;5048494;28;20045;-59
2023/03/22 03:46:28;;;;;;;17.45;8.55;;;;;;;;;;5046702;28;20049;-59
2023/03/22 03:48:56;;;;;;;14.60;9.13;;;;;;;;;;5061470;28;20041;-59
2023/03/22 03:51:22;;;;;;;18.40;9.38;;;;;;;;;;5071406;28;20049;-59
2023/03/22 03:53:49;;;;;;;18.05;9.00;;;;;;;;;;5045590;28;20513;-60
2023/03/22 03:56:15;;;;;;;13.80;8.65;;;;;;;;;;5063930;28;20103;-59
2023/03/22 03:58:41;;;;;;;15.27;9.23;;;;;;;;;;5058109;28;20530;-60
2023/03/22 04:01:08;;;;;;;13.10;8.48;;;;;;;;;;5049586;28;20049;-59
2023/03/22 04:03:35;;;;;;;14.38;8.55;;;;;;;;;;5072301;28;20060;-60
2023/03/22 04:06:02;;;;;;;15.07;9.05;;;;;;;;;;5062694;28;20492;-60
2023/03/22 04:08:28;;;;;;;16.20;8.77;;;;;;;;;;5062277;28;20055;-59
2023/03/22 04:10:55;;;;;;;19.27;9.02;;;;;;;;;;5055433;28;20136;-60
2023/03/22 04:13:23;;;;;;;16.20;7.72;;;;;;;;;;5059260;28;20065;-60
2023/03/22 04:15:53;;;;;;;18.50;8.85;;;;;;;;;;5054051;28;20052;-60
2023/03/22 04:18:20;;;;;;;16.08;8.77;;;;;;;;;;5053227;28;20096;-59
2023/03/22 04:20:48;;;;;;;16.00;8.80;;;;;;;;;;5054051;28;20058;-59
2023/03/22 04:23:15;;;;;;;14.73;8.90;;;;;;;;;;5045872;28;20053;-60
2023/03/22 04:25:42;;;;;;;17.08;9.02;;;;;;;;;;5051441;28;20041;-59
2023/03/22 04:28:08;;;;;;;13.27;8.13;;;;;;;;;;5064305;28;20045;-59
2023/03/22 04:30:35;;;;;;;12.32;7.93;;;;;;;;;;5085887;28;20052;-59
2023/03/22 04:33:05;;;;;;;14.73;8.68;;;;;;;;;;5086136;28;20459;-59
2023/03/22 04:35:33;;;;;;;15.18;7.93;;;;;;;;;;5078584;28;20144;-60
2023/03/22 04:38:00;;;;;;;18.35;8.48;;;;;;;;;;5063461;28;20556;-61
2023/03/22 04:40:30;;;;;;;15.38;8.05;;;;;;;;;;5050203;28;20156;-60
2023/03/22 04:42:57;;;;;;;14.82;8.52;;;;;;;;;;5051006;28;20063;-60
2023/03/22 04:45:27;;;;;;;15.00;7.72;;;;;;;;;;5067380;28;20131;-60
2023/03/22 04:47:54;;;;;;;12.75;7.38;;;;;;;;;;5073830;28;20041;-60
2023/03/22 04:50:21;;;;;;;20.75;8.43;;;;;;;;;;5084704;28;20064;-59
2023/03/22 04:52:48;;;;;;;12.63;7.45;;;;;;;;;;5056572;28;20049;-60
2023/03/22 04:55:15;;;;;;;13.82;7.45;;;;;;;;;;5059627;28;20542;-59
2023/03/22 04:57:41;;;;;;;15.85;8.13;;;;;;;;;;5045267;28;20056;-58
2023/03/22 05:00:08;;;;;;;17.33;7.70;;;;;;;;;;5055907;28;20152;-60
2023/03/22 05:02:37;;;;;;;16.40;7.30;;;;;;;;;;5059641;28;20531;-59
2023/03/22 05:05:06;;;;;;;12.45;7.10;;;;;;;;;;5060223;28;20598;-59
2023/03/22 05:07:33;;;;;;;12.93;7.40;;;;;;;;;;5063872;28;20136;-60
2023/03/22 05:09:59;;;;;;;12.10;7.20;;;;;;;;;;5074296;28;20466;-61
2023/03/22 05:12:25;;;;;;;15.75;7.15;;;;;;;;;;5063094;28;20060;-60
2023/03/22 05:14:52;;;;;;;16.25;8.23;;;;;;;;;;5064026;28;20080;-59
2023/03/22 05:17:18;;;;;;;15.85;6.80;;;;;;;;;;5059168;28;20057;-60
2023/03/22 05:19:45;;;;;;;16.75;7.22;;;;;;;;;;5080547;28;20053;-60
2023/03/22 05:22:12;;;;;;;17.73;7.50;;;;;;;;;;5073492;28;20547;-59
2023/03/22 05:24:39;;;;;;;14.18;6.78;;;;;;;;;;5065718;28;20176;-60
2023/03/22 05:27:05;;;;;;;12.75;6.70;;;;;;;;;;5064424;28;20099;-60
2023/03/22 05:29:35;;;;;;;11.82;6.95;;;;;;;;;;5054462;28;20064;-60
2023/03/22 05:32:02;;;;;;;12.77;6.57;;;;;;;;;;5059196;28;20053;-59
2023/03/22 05:34:34;;;;;;;11.95;6.43;;;;;;;;;;5045344;28;20059;-58
2023/03/22 05:37:01;;;;;;;10.63;6.25;;;;;;;;;;5054684;28;20103;-60
2023/03/22 05:39:27;;;;;;;12.40;5.72;;;;;;;;;;5069198;28;20785;-59
2023/03/22 05:41:54;;;;;;;12.50;6.35;;;;;;;;;;5063119;28;20073;-60
2023/03/22 05:44:20;;;;;;;15.07;6.15;;;;;;;;;;5056300;28;20042;-60
2023/03/22 05:46:46;;;;;;;13.00;6.35;;;;;;;;;;5052787;28;20057;-60
2023/03/22 05:49:13;;;;;;;10.90;5.72;;;;;;;;;;5061116;28;20049;-59
2023/03/22 05:51:41;;;;;;;13.13;5.97;;;;;;;;;;5077952;28;20080;-59
2023/03/22 05:54:08;;;;;;;10.93;5.43;;;;;;;;;;5057623;28;20495;-59
2023/03/22 05:56:34;;;;;;;12.60;6.30;;;;;;;;;;5070401;28;20048;-59
2023/03/22 05:59:01;;;;;;;13.20;6.10;;;;;;;;;;5054076;28;20103;-60
2023/03/22 06:01:28;;;;;;;10.15;5.38;;;;;;;;;;5066890;28;20045;-60
2023/03/22 06:03:54;;;;;;;15.63;5.75;;;;;;;;;;5062056;28;20049;-60
2023/03/22 06:06:21;;;;;;;9.98;5.90;;;;;;;;;;5068122;28;20048;-59
2023/03/22 06:08:47;;;;;;;10.65;5.90;;;;;;;;;;5052107;28;20037;-60
2023/03/22 06:11:13;;;;;;;13.30;5.57;;;;;;;;;;5073480;28;20056;-59
2023/03/22 06:13:40;;;;;;;11.13;5.75;;;;;;;;;;5072361;28;20049;-60
2023/03/22 06:16:06;;;;;;;13.30;5.15;;;;;;;;;;5053639;28;20050;-59
2023/03/22 06:18:33;;;;;;;13.00;5.03;;;;;;;;;;5047748;28;20427;-60
2023/03/22 06:20:59;;;;;;;9.50;4.60;;;;;;;;;;5047945;28;20100;-60
2023/03/22 06:23:26;;;;;;;10.40;5.50;;;;;;;;;;5056551;28;20060;-60
2023/03/22 06:25:52;;;;;;;8.70;4.65;;;;;;;;;;5046745;28;20053;-59
2023/03/22 06:28:19;;;;;;;8.07;4.78;;;;;;;;;;5047049;28;20165;-59
2023/03/22 06:30:45;;;;;;;8.73;4.68;;;;;;;;;;5055873;28;20052;-60
2023/03/22 06:33:12;;;;;;;10.00;4.50;;;;;;;;;;5061070;28;20084;-59
2023/03/22 06:35:38;;;;;;;12.07;4.38;;;;;;;;;;5071101;28;20060;-60
2023/03/22 06:38:04;;;;;;;11.13;4.50;;;;;;;;;;5078067;28;20180;-59
2023/03/22 06:40:31;;;;;;;9.70;3.92;;;;;;;;;;5065561;28;20136;-60
2023/03/22 06:42:57;;;;;;;5.35;3.53;;;;;;;;;;5067217;28;20562;-59
2023/03/22 06:45:32;;;;;;;9.18;4.75;;;;;;;;;;5062698;28;20598;-59
2023/03/22 06:47:59;;;;;;;8.23;3.65;;;;;;;;;;5066425;28;20053;-59
2023/03/22 06:50:26;;;;;;;11.90;4.45;;;;;;;;;;5069244;28;20049;-60
2023/03/22 06:52:53;;;;;;;8.48;3.83;;;;;;;;;;5064316;28;20053;-61
2023/03/22 06:55:19;;;;;;;11.50;4.55;;;;;;;;;;5069955;28;20168;-59
2023/03/22 06:57:45;;;;;;;5.47;3.33;;;;;;;;;;5061004;28;20057;-59
2023/03/22 07:00:12;;;;;;;8.68;3.53;;;;;;;;;;5060823;28;20060;-60
2023/03/22 07:02:38;;;;;;;10.10;3.33;;;;;;;;;;5057559;28;20602;-59
2023/03/22 07:05:05;;;;;;;6.97;3.22;;;;;;;;;;5061787;28;20064;-60
2023/03/22 07:07:31;;;;;;;8.70;3.85;;;;;;;;;;5072461;28;20518;-59
2023/03/22 07:09:58;;;;;;;11.45;3.10;;;;;;;;;;5066286;28;20087;-60
2023/03/22 07:12:24;;;;;;;9.25;3.08;;;;;;;;;;5063949;28;20146;-60
2023/03/22 07:14:51;;;;;;;11.23;3.33;;;;;;;;;;5063048;28;20085;-59
2023/03/22 07:17:17;;;;;;;6.80;3.05;;;;;;;;;;5063204;28;20053;-61
2023/03/22 07:19:43;;;;;;;10.40;3.33;;;;;;;;;;5073172;28;20053;-59
2023/03/22 07:22:10;;;;;;;8.02;4.05;;;;;;;;;;5083711;28;20051;-60
2023/03/22 07:24:36;;;;;;;9.38;3.10;;;;;;;;;;5075530;28;20079;-60
2023/03/22 07:27:19;;;;;;;8.90;3.03;;;;;;;;;;5062965;28;20085;-60
2023/03/22 07:29:46;;;;;;;6.60;2.78;;;;;;;;;;5070839;28;20078;-59
2023/03/22 07:32:12;;;;;;;7.05;2.83;;;;;;;;;;5073055;28;20049;-59
2023/03/22 07:34:39;;;;;;;10.23;3.05;;;;;;;;;;5059521;28;20049;-60
2023/03/22 07:37:07;;;;;;;11.18;2.67;;;;;;;;;;5062249;28;20146;-61
2023/03/22 07:39:34;;;;;;;7.80;2.95;;;;;;;;;;5073884;28;20052;-61
2023/03/22 07:42:00;;;;;;;12.32;3.15;;;;;;;;;;5072915;28;20044;-59
2023/03/22 07:44:27;;;;;;;10.52;3.05;;;;;;;;;;5075537;28;20515;-59
2023/03/22 07:46:53;;;;;;;9.25;2.90;;;;;;;;;;5074168;28;20045;-60
2023/03/22 07:49:20;;;;;;;6.35;2.38;;;;;;;;;;5049837;28;20053;-61
2023/03/22 07:51:46;;;;;;;5.57;2.08;;;;;;;;;;5061623;28;20063;-61
2023/03/22 07:54:12;;;;;;;9.70;2.35;;;;;;;;;;5062058;28;20057;-61
2023/03/22 07:56:55;;;;;;;9.88;2.50;;;;;;;;;;5060289;28;20052;-61
2023/03/22 07:59:22;;;;;;;9.85;3.00;;;;;;;;;;5070621;28;20540;-60
2023/03/22 08:01:49;;;;;;;7.88;3.50;;;;;;;;;;5066377;28;20056;-60
2023/03/22 08:04:15;;;;;;;7.50;2.83;;;;;;;;;;5059382;28;20596;-60
2023/03/22 08:06:41;;;;;;;7.57;2.65;;;;;;;;;;5045634;28;20050;-60
2023/03/22 08:09:08;;;;;;;6.57;2.10;;;;;;;;;;5055948;28;20511;-62
2023/03/22 08:11:35;;;;;;;14.73;2.58;;;;;;;;;;5056140;28;20084;-60
2023/03/22 08:14:02;;;;;;;10.18;3.03;;;;;;;;;;5061741;28;20095;-61
2023/03/22 08:16:28;;;;;;;6.50;2.40;;;;;;;;;;5062624;28;20053;-60
2023/03/22 08:18:55;;;;;;;8.25;2.70;;;;;;;;;;5061069;28;20053;-61
2023/03/22 08:21:21;;;;;;;5.70;2.65;;;;;;;;;;5072950;28;20052;-61
2023/03/22 08:23:47;;;;;;;6.50;2.33;;;;;;;;;;5081999;28;20520;-60
2023/03/22 08:26:15;;;;;;;9.63;3.20;;;;;;;;;;5082471;28;20173;-60
2023/03/22 08:28:41;;;;;;;6.28;2.40;;;;;;;;;;5070815;28;20057;-60
2023/03/22 08:31:12;;;;;;;8.85;3.22;;;;;;;;;;5062345;28;20048;-60
2023/03/22 08:33:40;;;;;;;11.15;2.78;;;;;;;;;;5062039;28;20053;-60
2023/03/22 08:36:08;;;;;;;13.25;2.40;;;;;;;;;;5061895;28;20056;-61
2023/03/22 08:38:35;;;;;;;11.05;2.83;;;;;;;;;;5060902;28;20053;-60
2023/03/22 08:41:02;;;;;;;9.05;2.60;;;;;;;;;;5047722;28;20565;-61
2023/03/22 08:43:28;;;;;;;9.35;3.38;;;;;;;;;;5042315;28;20495;-61
2023/03/22 08:45:55;;;;;;;11.43;3.08;;;;;;;;;;5043612;28;20111;-61
2023/03/22 08:48:21;;;;;;;7.72;2.63;;;;;;;;;;5062312;28;20507;-60
2023/03/22 08:50:48;;;;;;;10.25;3.00;;;;;;;;;;5061519;28;20098;-61
2023/03/22 08:53:14;;;;;;;6.15;2.95;;;;;;;;;;5061208;28;20455;-61
2023/03/22 08:55:43;;;;;;;7.68;3.05;;;;;;;;;;5061732;28;20541;-60
2023/03/22 08:58:15;;;;;;;8.27;2.78;;;;;;;;;;5060826;28;20499;-61
2023/03/22 09:00:42;;;;;;;4.15;2.55;;;;;;;;;;5081167;28;20064;-60
2023/03/22 09:03:15;;;;;;;8.38;3.33;;;;;;;;;;5063302;28;20056;-60
2023/03/22 09:05:41;;;;;;;10.98;3.95;;;;;;;;;;5059023;28;20049;-60
2023/03/22 09:08:07;;;;;;;8.65;3.03;;;;;;;;;;5061270;28;20511;-61
2023/03/22 09:10:36;;;;;;;6.13;2.90;;;;;;;;;;5061990;28;20529;-60
2023/03/22 09:13:02;;;;;;;15.20;3.47;;;;;;;;;;5066558;28;20089;-60
2023/03/22 09:15:29;;;;;;;13.20;3.97;;;;;;;;;;5072264;28;20497;-60
2023/03/22 09:17:56;;;;;;;11.73;3.67;;;;;;;;;;5073054;28;20144;-61
2023/03/22 09:20:24;;;;;;;6.25;2.55;;;;;;;;;;5077591;28;20049;-61
2023/03/22 09:22:51;;;;;;;7.95;2.80;;;;;;;;;;5070381;28;20045;-60
2023/03/22 09:25:17;;;;;;;7.75;3.05;;;;;;;;;;5073845;28;20063;-60
2023/03/22 09:27:44;;;;;;;7.50;2.55;;;;;;;;;;5080632;28;20143;-61
2023/03/22 09:30:11;;;;;;;7.63;2.90;;;;;;;;;;5078865;28;20135;-60
2023/03/22 09:32:37;;;;;;;9.50;3.17;;;;;;;;;;5057598;28;20708;-60
2023/03/22 09:35:05;;;;;;;8.65;3.20;;;;;;;;;;5069837;28;20479;-61
2023/03/22 09:37:31;;;;;;;7.22;3.17;;;;;;;;;;5065190;28;20060;-61
2023/03/22 09:39:58;;;;;;;12.15;3.22;;;;;;;;;;5064736;28;20045;-61
2023/03/22 09:42:27;;;;;;;8.50;3.08;;;;;;;;;;5062562;28;20412;-60
2023/03/22 09:44:55;;;;;;;9.63;3.03;;;;;;;;;;5064734;28;20550;-61
2023/03/22 09:47:30;;;;;;;10.43;3.33;;;;;;;;;;5066060;28;20049;-60
2023/03/22 09:50:17;;;;;;;9.05;3.25;;;;;;;;;;5084656;28;20122;-60
2023/03/22 09:52:44;;;;;;;7.18;3.13;;;;;;;;;;5079302;28;20049;-60
2023/03/22 09:55:29;;;;;;;6.57;2.88;;;;;;;;;;5084570;28;20045;-60
2023/03/22 09:58:05;;;;;;;11.40;4.17;;;;;;;;;;5078998;28;20060;-61
2023/03/22 10:00:38;;;;;;;15.57;4.03;;;;;;;;;;5075636;28;20271;-60
2023/03/22 10:03:04;;;;;;;9.77;3.53;;;;;;;;;;5084973;28;20045;-60
2023/03/22 10:05:37;;;;;;;10.75;3.53;;;;;;;;;;5081110;28;20049;-60
2023/03/22 10:08:29;;;;;;;9.30;2.90;;;;;;;;;;5076597;28;20036;-60
2023/03/22 10:10:56;;;;;;;6.00;3.38;;;;;;;;;;5056226;28;20056;-61
2023/03/22 10:13:26;;;;;;;7.03;3.25;;;;;;;;;;5064641;28;20527;-60
2023/03/22 10:15:54;;;;;;;8.52;3.65;;;;;;;;;;5064230;28;20131;-60
2023/03/22 10:18:25;;;;;;;8.88;4.20;;;;;;;;;;5064457;28;20202;-60
2023/03/22 10:21:05;;;;;;;12.15;3.50;;;;;;;;;;5064383;28;20080;-60
2023/03/22 10:24:01;;;;;;;7.55;3.40;;;;;;;;;;5064414;28;20080;-61
2023/03/22 10:26:35;;;;;;;10.57;3.50;;;;;;;;;;5060021;28;20044;-60
2023/03/22 10:29:04;;;;;;;13.55;3.60;;;;;;;;;;5064241;28;20589;-61
2023/03/22 10:31:32;;;;;;;8.30;3.20;;;;;;;;;;5064615;28;20087;-61
2023/03/22 10:34:05;;;;;;;6.47;3.38;;;;;;;;;;5063895;28;20570;-61
2023/03/22 10:36:33;;;;;;;9.15;3.80;;;;;;;;;;5057995;28;20050;-61
2023/03/22 10:39:03;;;;;;;6.47;3.58;;;;;;;;;;5055564;28;20208;-60
2023/03/22 10:41:31;;;;;;;9.00;3.80;;;;;;;;;;5062797;28;20053;-60
2023/03/22 10:43:58;;;;;;;5.20;3.60;;;;;;;;;;5065004;28;20081;-60
2023/03/22 10:46:26;;;;;;;10.52;3.45;;;;;;;;;;5063050;28;20064;-60
2023/03/22 10:48:55;;;;;;;9.02;4.18;;;;;;;;;;5074339;28;20124;-60
2023/03/22 10:51:31;;;;;;;13.48;4.05;;;;;;;;;;5063651;28;20081;-60
2023/03/22 10:53:58;;;;;;;7.60;3.45;;;;;;;;;;5063501;28;20053;-60
2023/03/22 10:56:25;;;;;;;12.57;3.38;;;;;;;;;;5046748;28;20084;-61
2023/03/22 10:58:53;;;;;;;4.55;2.78;;;;;;;;;;5073138;28;20052;-60
2023/03/22 11:01:26;;;;;;;13.38;4.45;;;;;;;;;;5065474;28;20534;-59
2023/03/22 11:03:57;;;;;;;7.13;2.97;;;;;;;;;;5068457;28;20079;-58
2023/03/22 11:06:26;;;;;;;10.20;3.25;;;;;;;;;;5067475;28;20609;-59
2023/03/22 11:09:13;;;;;;;11.10;4.03;;;;;;;;;;5072039;28;20305;-59
2023/03/22 11:11:50;;;;;;;3.50;3.03;;;;;;;;;;5065092;28;20049;-59
2023/03/22 11:14:26;;;;;;;13.18;3.42;;;;;;;;;;5061343;28;20418;-60
2023/03/22 11:16:52;;;;;;;8.52;3.30;;;;;;;;;;5043764;28;20065;-59
2023/03/22 11:19:25;;;;;;;13.15;3.50;;;;;;;;;;5061467;28;20168;-59
2023/03/22 11:21:52;;;;;;;7.13;3.30;;;;;;;;;;5072451;28;20423;-58
2023/03/22 11:24:20;;;;;;;13.23;3.40;;;;;;;;;;5073319;28;20806;-58
2023/03/22 11:27:06;;;;;;;6.07;2.67;;;;;;;;;;5063978;28;20104;-59
2023/03/22 11:29:44;;;;;;;7.43;3.03;;;;;;;;;;5061579;28;20055;-59
2023/03/22 11:32:29;;;;;;;7.45;2.60;;;;;;;;;;5062715;28;20096;-60
2023/03/22 11:35:00;;;;;;;9.98;4.10;;;;;;;;;;5062220;28;20119;-59
2023/03/22 11:37:27;;;;;;;12.98;3.10;;;;;;;;;;5065809;28;20565;-59
2023/03/22 11:39:58;;;;;;;5.53;2.70;;;;;;;;;;5061740;28;20145;-59
2023/03/22 11:42:25;;;;;;;11.40;3.40;;;;;;;;;;5068697;28;20099;-59
2023/03/22 11:44:51;;;;;;;7.50;2.47;;;;;;;;;;5063878;28;20076;-59
2023/03/22 11:47:18;;;;;;;2.33;2.13;;;;;;;;;;5062345;28;20045;-59
2023/03/22 11:49:44;;;;;;;11.38;2.88;;;;;;;;;;5061626;28;20087;-59
2023/03/22 11:52:16;;;;;;;6.53;2.53;;;;;;;;;;5048524;28;20053;-60
2023/03/22 11:54:44;;;;;;;9.38;3.00;;;;;;;;;;5052940;28;20151;-60
2023/03/22 11:57:15;;;;;;;7.15;2.35;;;;;;;;;;5057314;28;20140;-59
2023/03/22 11:59:47;;;;;;;10.00;3.58;;;;;;;;;;5063915;28;20065;-59
2023/03/22 12:02:22;;;;;;;7.00;2.15;;;;;;;;;;5067906;28;20482;-59
2023/03/22 12:04:51;;;;;;;6.28;3.00;;;;;;;;;;5064206;28;20044;-59
2023/03/22 12:07:23;;;;;;;7.15;2.50;;;;;;;;;;5058503;28;20065;-59
2023/03/22 12:10:02;;;;;;;6.28;2.30;;;;;;;;;;5061467;28;20060;-59
2023/03/22 12:12:31;;;;;;;8.38;3.03;;;;;;;;;;5060043;28;20766;-59
2023/03/22 12:15:16;;;;;;;10.65;3.05;;;;;;;;;;5065482;28;20053;-59
2023/03/22 12:18:05;;;;;;;9.13;3.22;;;;;;;;;;5062069;28;20104;-59
2023/03/22 12:20:39;;;;;;;3.15;2.72;;;;;;;;;;5052498;28;20048;-59
2023/03/22 12:23:16;;;;;;;6.45;2.40;;;;;;;;;;5069993;28;20060;-60
2023/03/22 12:25:47;;;;;;;6.45;2.80;;;;;;;;;;5065311;28;20057;-60
2023/03/22 12:28:15;;;;;;;7.70;2.83;;;;;;;;;;5062161;28;20052;-59
2023/03/22 12:30:43;;;;;;;6.72;2.50;;;;;;;;;;5061119;28;20365;-59
2023/03/22 12:33:33;;;;;;;6.93;2.35;;;;;;;;;;5063088;28;20140;-59
2023/03/22 12:36:03;;;;;;;9.55;3.10;;;;;;;;;;5058736;28;20063;-59
2023/03/22 12:38:42;;;;;;;4.07;2.47;;;;;;;;;;5060800;28;20046;-60
2023/03/22 12:41:14;;;;;;;9.82;4.25;;;;;;;;;;5060466;28;20132;-58
2023/03/22 12:43:41;;;;;;;7.18;3.55;;;;;;;;;;5053783;28;20049;-59
2023/03/22 12:46:14;;;;;;;12.00;3.67;;;;;;;;;;5055521;28;20392;-59
2023/03/22 12:48:45;;;;;;;6.45;3.10;;;;;;;;;;5056006;28;20060;-59
2023/03/22 12:51:12;;;;;;;6.22;2.90;;;;;;;;;;5061517;28;20060;-59
2023/03/22 12:53:44;;;;;;;7.78;4.07;;;;;;;;;;5064061;28;20521;-59
2023/03/22 12:56:16;;;;;;;7.68;3.55;;;;;;;;;;5059224;28;20053;-59
2023/03/22 12:58:47;;;;;;;8.90;3.30;;;;;;;;;;5057195;28;20656;-59
2023/03/22 13:01:32;;;;;;;5.50;3.00;;;;;;;;;;5051176;28;20049;-59
2023/03/22 13:03:59;;;;;;;13.93;4.20;;;;;;;;;;5056954;28;20144;-59
2023/03/22 13:06:33;;;;;;;6.32;3.50;;;;;;;;;;5063381;28;20091;-58
2023/03/22 13:09:03;;;;;;;12.90;4.85;;;;;;;;;;5049015;28;20053;-59
2023/03/22 13:11:29;;;;;;;5.03;3.08;;;;;;;;;;5061084;28;20049;-59
2023/03/22 13:13:56;;;;;;;8.63;4.30;;;;;;;;;;5064493;28;20049;-63
2023/03/22 13:16:23;;;;;;;11.52;5.80;;;;;;;;;;5061055;28;20053;-58
2023/03/22 13:18:49;;;;;;;9.68;5.72;;;;;;;;;;5068223;28;20423;-62
2023/03/22 13:21:16;;;;;;;8.27;3.90;;;;;;;;;;5063104;28;20049;-59
2023/03/22 13:24:03;;;;;;;7.53;3.35;;;;;;;;;;5071079;28;21212;-59
2023/03/22 13:26:44;;;;;;;6.43;3.72;;;;;;;;;;5060929;28;20136;-60
2023/03/22 13:29:16;;;;;;;7.22;4.10;;;;;;;;;;5060719;28;20049;-59
2023/03/22 13:31:53;;;;;;;6.57;4.70;;;;;;;;;;5061019;28;20132;-59
2023/03/22 13:34:21;;;;;;;6.90;4.07;;;;;;;;;;5057408;28;20061;-59
2023/03/22 13:36:49;;;;;;;6.00;3.13;;;;;;;;;;5070699;28;20620;-60
2023/03/22 13:39:15;;;;;;;9.15;5.65;;;;;;;;;;5063123;28;20053;-59
2023/03/22 13:41:44;;;;;;;6.55;4.38;;;;;;;;;;5059498;28;20049;-59
2023/03/22 13:44:34;;;;;;;9.80;4.88;;;;;;;;;;5060191;28;20045;-60
2023/03/22 13:47:00;;;;;;;10.15;4.68;;;;;;;;;;5056265;28;20056;-60
2023/03/22 13:49:30;;;;;;;9.45;5.05;;;;;;;;;;5060593;28;20088;-59
2023/03/22 13:52:00;;;;;;;7.05;4.00;;;;;;;;;;5061276;28;20088;-60
2023/03/22 13:54:33;;;;;;;8.23;4.82;;;;;;;;;;5061301;28;20052;-60
2023/03/22 13:57:00;;;;;;;5.13;3.85;;;;;;;;;;5058335;28;20597;-59
2023/03/22 13:59:29;;;;;;;10.93;4.75;;;;;;;;;;5053920;28;20050;-59
2023/03/22 14:02:17;;;;;;;12.40;6.72;;;;;;;;;;5063136;28;20140;-59
2023/03/22 14:04:46;;;;;;;6.47;4.85;;;;;;;;;;5055620;28;20056;-59
2023/03/22 14:07:24;;;;;;;7.88;3.83;;;;;;;;;;5056856;28;20439;-59
2023/03/22 14:09:57;;;;;;;7.68;3.50;;;;;;;;;;5058505;28;20676;-58
2023/03/22 14:12:30;;;;;;;10.98;4.10;;;;;;;;;;5058016;28;20051;-59
2023/03/22 14:14:59;;;;;;;6.38;3.63;;;;;;;;;;5058929;28;20049;-59
2023/03/22 14:17:31;;;;;;;8.75;3.80;;;;;;;;;;5069113;28;20149;-59
2023/03/22 14:19:58;;;;;;;9.50;3.75;;;;;;;;;;5056860;28;20103;-60
2023/03/22 14:22:30;;;;;;;7.57;4.00;;;;;;;;;;5062780;28;20128;-59
2023/03/22 14:24:56;;;;;;;7.18;3.50;;;;;;;;;;5063372;28;20550;-59
2023/03/22 14:27:21;;;;;;;8.65;4.15;;;;;;;;;;5066788;28;20041;-59
2023/03/22 14:29:47;;;;;;;9.07;3.72;;;;;;;;;;5064643;28;20128;-59
2023/03/22 14:32:17;;;;;;;5.68;3.83;;;;;;;;;;5059584;28;20637;-59
2023/03/22 14:34:44;;;;;;;7.93;4.60;;;;;;;;;;5060390;28;20900;-60
2023/03/22 14:37:11;;;;;;;9.85;4.35;;;;;;;;;;5062641;28;20048;-59
2023/03/22 14:39:40;;;;;;;7.95;4.55;;;;;;;;;;5049767;28;20057;-59
2023/03/22 14:42:21;;;;;;;10.05;4.95;;;;;;;;;;5062940;28;20075;-59
2023/03/22 14:44:48;;;;;;;10.50;5.22;;;;;;;;;;5061445;28;20040;-59
2023/03/22 14:47:14;;;;;;;6.60;5.57;;;;;;;;;;5063805;28;20052;-59
2023/03/22 14:49:41;;;;;;;6.07;4.97;;;;;;;;;;5069282;28;20114;-59
2023/03/22 14:52:12;;;;;;;7.90;5.30;;;;;;;;;;5068552;28;20058;-60